British Tenacity — MDTE9 — position and weather

sailwx.info

Track history (hours):
 
Tides and Currents Weather Stations Pressure Air Temp Water Temp Dewpoint Dewpoint Depression Visibility Wind Speed Wind Dir Waves Ship Positions

British Tenacity

Last reported at 2016-Aug-23 20:29 UTC. Time now 2016-Aug-23 21:08 UTC.
Position S 24°05' W 046°22'.

Type: Ship (hazmat cat C). MMSI: 235825000.

Date/timePositionNaut miles runAvg speedWind from/ knotsBaromVisibWave heightAir tempDewpointWater temp
2016-Aug-23 20:29S 24°05' W 046°22'0 0.0
2016-Aug-23 18:29S 24°05' W 046°22'0 0.0
2016-Aug-23 17:29S 24°05' W 046°22'0 0.0
2016-Aug-23 16:23S 24°05' W 046°22'0 0.0
2016-Aug-23 15:29S 24°05' W 046°22'0 0.0
2016-Aug-23 14:23S 24°05' W 046°22'0 0.0
2016-Aug-23 13:23S 24°05' W 046°22'0 0.0
2016-Aug-23 12:17S 24°05' W 046°22'0 0.0
2016-Aug-23 11:05S 24°05' W 046°22'0 0.0
2016-Aug-23 10:29S 24°05' W 046°22'0 0.0
2016-Aug-23 09:29S 24°05' W 046°22'0 0.0
2016-Aug-23 08:17S 24°05' W 046°22'0 0.0
2016-Aug-23 07:29S 24°05' W 046°22'0 0.0
2016-Aug-23 06:29S 24°05' W 046°22'0 0.0
2016-Aug-23 05:22S 24°05' W 046°22'0 0.0
2016-Aug-23 04:16S 24°05' W 046°22'0 0.0
2016-Aug-23 03:22S 24°05' W 046°22'0 0.0
2016-Aug-23 02:28S 24°05' W 046°22'0 0.0
2016-Aug-23 01:28S 24°05' W 046°22'0 0.0
2016-Aug-23 00:28S 24°05' W 046°22'0 0.1
2016-Aug-22 23:33S 24°05' W 046°22'6 6.1
2016-Aug-22 22:32S 23°60' W 046°18'6 0.1
2016-Aug-20 18:32S 23°55' W 046°22'5 4.8
2016-Aug-20 17:33S 23°58' W 046°18'7 6.5
2016-Aug-20 16:33S 24°05' W 046°19'3 2.4
2016-Aug-20 15:25S 24°07' W 046°17'0 0.0
2016-Aug-20 14:31S 24°07' W 046°17'0 0.0
2016-Aug-20 13:31S 24°07' W 046°17'0 0.0
2016-Aug-20 11:31S 24°07' W 046°17'0 0.0
2016-Aug-20 10:31S 24°07' W 046°17'0 0.0
2016-Aug-20 08:19S 24°07' W 046°17'0 0.0
2016-Aug-20 07:28S 24°07' W 046°17'0 0.0
2016-Aug-20 06:19S 24°07' W 046°17'0 0.0
2016-Aug-20 05:25S 24°07' W 046°17'0 0.0
2016-Aug-20 04:25S 24°07' W 046°17'0 0.0
2016-Aug-20 03:25S 24°07' W 046°17'0 0.0
2016-Aug-20 02:25S 24°07' W 046°17'0 0.0
2016-Aug-20 01:13S 24°07' W 046°17'0 0.1
2016-Aug-20 00:28S 24°07' W 046°17'0 0.0
2016-Aug-19 23:07S 24°07' W 046°17'0 0.0
2016-Aug-19 22:31S 24°07' W 046°17'0 0.0
2016-Aug-19 21:04S 24°07' W 046°17'0 0.0
2016-Aug-19 19:19S 24°07' W 046°17'0 0.0
2016-Aug-19 18:31S 24°07' W 046°17'0 0.0
2016-Aug-19 17:31S 24°07' W 046°17'0 0.0
2016-Aug-19 16:31S 24°07' W 046°17'0 0.0
2016-Aug-19 15:31S 24°07' W 046°17'0 0.0
2016-Aug-19 14:31S 24°07' W 046°17'0 0.0
2016-Aug-19 12:30S 24°07' W 046°17'0 0.0
2016-Aug-19 11:30S 24°07' W 046°17'0 0.1
2016-Aug-19 10:33S 24°07' W 046°17'7 6.7
2016-Aug-19 09:33S 24°08' W 046°10'26712.7
2016-Aug-18 12:33S 23°38' W 041°19'1412.8
2016-Aug-18 11:29S 23°36' W 041°04'2513.1
2016-Aug-18 09:33S 23°31' W 040°37'3912.8
2016-Aug-18 06:32S 23°03' W 040°08'1313.4
2016-Aug-18 05:34S 22°53' W 039°59'  
Track history (hours):
 
Tides and Currents Weather Stations Pressure Air Temp Water Temp Dewpoint Dewpoint Depression Visibility Wind Speed Wind Dir Waves Ship Positions

British Tenacity

Last reported at 2016-Aug-23 20:29 UTC. Time now 2016-Aug-23 21:08 UTC.
Position S 24°05' W 046°22'.

Type: Ship (hazmat cat C). MMSI: 235825000.

Date/timePositionNaut miles runAvg speedWind from/ knotsBaromVisibWave heightAir tempDewpointWater temp
2016-Aug-23 20:29S 24°05' W 046°22'0 0.0
2016-Aug-23 18:29S 24°05' W 046°22'0 0.0
2016-Aug-23 17:29S 24°05' W 046°22'0 0.0
2016-Aug-23 16:23S 24°05' W 046°22'0 0.0
2016-Aug-23 15:29S 24°05' W 046°22'0 0.0
2016-Aug-23 14:23S 24°05' W 046°22'0 0.0
2016-Aug-23 13:23S 24°05' W 046°22'0 0.0
2016-Aug-23 12:17S 24°05' W 046°22'0 0.0
2016-Aug-23 11:05S 24°05' W 046°22'0 0.0
2016-Aug-23 10:29S 24°05' W 046°22'0 0.0
2016-Aug-23 09:29S 24°05' W 046°22'0 0.0
2016-Aug-23 08:17S 24°05' W 046°22'0 0.0
2016-Aug-23 07:29S 24°05' W 046°22'0 0.0
2016-Aug-23 06:29S 24°05' W 046°22'0 0.0
2016-Aug-23 05:22S 24°05' W 046°22'0 0.0
2016-Aug-23 04:16S 24°05' W 046°22'0 0.0
2016-Aug-23 03:22S 24°05' W 046°22'0 0.0
2016-Aug-23 02:28S 24°05' W 046°22'0 0.0
2016-Aug-23 01:28S 24°05' W 046°22'0 0.0
2016-Aug-23 00:28S 24°05' W 046°22'0 0.1
2016-Aug-22 23:33S 24°05' W 046°22'6 6.1
2016-Aug-22 22:32S 23°60' W 046°18'6 0.1
2016-Aug-20 18:32S 23°55' W 046°22'5 4.8
2016-Aug-20 17:33S 23°58' W 046°18'7 6.5
2016-Aug-20 16:33S 24°05' W 046°19'3 2.4
2016-Aug-20 15:25S 24°07' W 046°17'0 0.0
2016-Aug-20 14:31S 24°07' W 046°17'0 0.0
2016-Aug-20 13:31S 24°07' W 046°17'0 0.0
2016-Aug-20 11:31S 24°07' W 046°17'0 0.0
2016-Aug-20 10:31S 24°07' W 046°17'0 0.0
2016-Aug-20 08:19S 24°07' W 046°17'0 0.0
2016-Aug-20 07:28S 24°07' W 046°17'0 0.0
2016-Aug-20 06:19S 24°07' W 046°17'0 0.0
2016-Aug-20 05:25S 24°07' W 046°17'0 0.0
2016-Aug-20 04:25S 24°07' W 046°17'0 0.0
2016-Aug-20 03:25S 24°07' W 046°17'0 0.0
2016-Aug-20 02:25S 24°07' W 046°17'0 0.0
2016-Aug-20 01:13S 24°07' W 046°17'0 0.1
2016-Aug-20 00:28S 24°07' W 046°17'0 0.0
2016-Aug-19 23:07S 24°07' W 046°17'0 0.0
2016-Aug-19 22:31S 24°07' W 046°17'0 0.0
2016-Aug-19 21:04S 24°07' W 046°17'0 0.0
2016-Aug-19 19:19S 24°07' W 046°17'0 0.0
2016-Aug-19 18:31S 24°07' W 046°17'0 0.0
2016-Aug-19 17:31S 24°07' W 046°17'0 0.0
2016-Aug-19 16:31S 24°07' W 046°17'0 0.0
2016-Aug-19 15:31S 24°07' W 046°17'0 0.0
2016-Aug-19 14:31S 24°07' W 046°17'0 0.0
2016-Aug-19 12:30S 24°07' W 046°17'0 0.0
2016-Aug-19 11:30S 24°07' W 046°17'0 0.1
2016-Aug-19 10:33S 24°07' W 046°17'7 6.7
2016-Aug-19 09:33S 24°08' W 046°10'26712.7
2016-Aug-18 12:33S 23°38' W 041°19'1412.8
2016-Aug-18 11:29S 23°36' W 041°04'2513.1
2016-Aug-18 09:33S 23°31' W 040°37'3912.8
2016-Aug-18 06:32S 23°03' W 040°08'1313.4
2016-Aug-18 05:34S 22°53' W 039°59'  

Dump ship's entire track history